Terminal Aerodrome Forecast
Issued by NWS Twin Cities, MN

Home | Current Version | Previous Version | Text Only | Print | Product List | Glossary Off
Versions: 1 2 3 4 5 6 7 8 9 10 11 12 13 14 15 16 17 18 19 20 21 22 23 24

367
FTUS43 KMPX 221740
TAFEAU
TAF
KEAU 221740Z 2218/2318 09007KT P6SM OVC040
     FM230100 11007KT 1 1/2SM -SN BR VV020
     FM230300 12005KT 3/4SM -SN BR VV008
     FM231100 17005KT 6SM -SHSN OVC008
     FM231300 22006KT P6SM OVC015
     FM231600 26008KT P6SM BKN035=

USA.gov is the U.S. government's official web portal to all federal, state and local government web resources and services.